Pagina principală
METAR-TAF:

METAR-TAF

Aeroporturi :

Santa Maria di Leuca

Castrignano del Capo, Italia

Latitudine: 39-49N, longitudine: 018-21E, elevație: 104 m

Observații meteo curente

Raportul a fost făcut în urmă cu 29 de minute, la 08:55 UTC
Vânt 9 kt de la Nord-est, variabil între Nord și Est
Temperatură 35°C
Umiditate 37%
Presiune 1012 hPa
Vizibilitate de 10 km sau mai mult
nu există nori sub 1.500 m și nici cumulonimbus

METAR: LIBY 170855Z 04009KT 010V090 CAVOK 35/18 Q1012 RMK SKC QUK 3 QUL 1 N VIS MAR 30 KM VIS MAX 30 KM VIS MIN 9999

Ora: 11:24 (09:24 UTC)


TAF: lipsă

Observații și prognoze meteo pentru peste 4.000 de aeroporturi (rapoarte METAR și TAF).

Stațiile disponibile sunt reprezentate pe hartă prin puncte galbene și roșii.

Țineți indicatorul mouse-ului pe punctul dorit pentru a vedea denumirea stației.

Apoi, faceți clic pentru a vedea observațiile și prognozele meteorologice.

Pentru a schimba harta: Pentru mărire, faceți clic pe butoanele verzi cu cruce neagră; pentru micșorare, pe butonul verde cu o liniuță; pentru hărți învecinate, pe săgețile verzi.


METAR-TAF: